Time;durP1;ratioP1;P1;durP2;ratioP2;P2;SDS_P1;SDS_P2;PMS_P1;PMS_P2;Temp;Humidity;BMP_temperature;BMP_pressure;BME280_temperature;BME280_humidity;BME280_pressure;Samples;Min_cycle;Max_cycle;Signal;HPM_P1;HPM_P2
2022/02/23 00:00:15;;;;;;;1.52;1.20;;;;;;;;;;5072861;28;20111;-39
2022/02/23 00:02:41;;;;;;;1.55;0.75;;;;;;;;;;5072667;28;20096;-39
2022/02/23 00:05:06;;;;;;;2.00;1.10;;;;;;;;;;5072853;28;20037;-39
2022/02/23 00:07:32;;;;;;;1.92;1.25;;;;;;;;;;5072546;28;20549;-39
2022/02/23 00:09:57;;;;;;;3.15;1.45;;;;;;;;;;5072488;28;20153;-39
2022/02/23 00:12:23;;;;;;;1.90;1.23;;;;;;;;;;5071460;28;20052;-39
2022/02/23 00:14:48;;;;;;;5.30;1.25;;;;;;;;;;5072441;28;20074;-39
2022/02/23 00:17:14;;;;;;;1.88;1.45;;;;;;;;;;5072319;28;20027;-39
2022/02/23 00:19:39;;;;;;;3.80;1.30;;;;;;;;;;5071404;28;20029;-38
2022/02/23 00:22:05;;;;;;;2.63;1.30;;;;;;;;;;5072618;28;20077;-39
2022/02/23 00:24:30;;;;;;;1.73;1.20;;;;;;;;;;5072427;28;20153;-39
2022/02/23 00:26:56;;;;;;;1.45;1.20;;;;;;;;;;5072360;28;20025;-38
2022/02/23 00:29:21;;;;;;;2.00;1.10;;;;;;;;;;5072295;28;20030;-39
2022/02/23 00:31:47;;;;;;;5.55;1.25;;;;;;;;;;5071882;28;20410;-39
2022/02/23 00:34:13;;;;;;;1.60;1.13;;;;;;;;;;5072321;28;20028;-39
2022/02/23 00:36:40;;;;;;;2.28;1.25;;;;;;;;;;5071967;28;20037;-39
2022/02/23 00:39:06;;;;;;;3.00;0.93;;;;;;;;;;5072031;28;20068;-39
2022/02/23 00:41:31;;;;;;;2.97;1.42;;;;;;;;;;5071975;28;20054;-39
2022/02/23 00:43:57;;;;;;;6.03;1.75;;;;;;;;;;5072122;28;20101;-38
2022/02/23 00:46:22;;;;;;;1.35;1.25;;;;;;;;;;5071977;28;20383;-39
2022/02/23 00:48:48;;;;;;;0.70;0.70;;;;;;;;;;5071677;28;20029;-39
2022/02/23 00:51:14;;;;;;;1.45;0.75;;;;;;;;;;5071700;28;20105;-39
2022/02/23 00:53:39;;;;;;;1.42;0.75;;;;;;;;;;5071698;28;20086;-39
2022/02/23 00:56:05;;;;;;;2.92;1.67;;;;;;;;;;5071739;28;20020;-39
2022/02/23 00:58:30;;;;;;;3.47;1.02;;;;;;;;;;5071523;28;20033;-38
2022/02/23 01:00:56;;;;;;;3.33;1.33;;;;;;;;;;5071912;28;20024;-39
2022/02/23 01:03:21;;;;;;;1.83;1.48;;;;;;;;;;5071843;28;20379;-39
2022/02/23 01:05:47;;;;;;;2.03;1.20;;;;;;;;;;5071218;28;20112;-39
2022/02/23 01:08:12;;;;;;;1.33;0.98;;;;;;;;;;5071403;28;20508;-39
2022/02/23 01:10:38;;;;;;;2.28;1.08;;;;;;;;;;5071590;28;20024;-39
2022/02/23 01:13:03;;;;;;;0.98;0.75;;;;;;;;;;5071563;28;20024;-38
2022/02/23 01:15:29;;;;;;;1.17;0.88;;;;;;;;;;5071407;28;20051;-39
2022/02/23 01:17:55;;;;;;;0.80;0.70;;;;;;;;;;5071371;28;20025;-38
2022/02/23 01:20:20;;;;;;;1.58;0.90;;;;;;;;;;5071367;28;20052;-39
2022/02/23 01:22:46;;;;;;;3.33;0.90;;;;;;;;;;5071391;28;20036;-38
2022/02/23 01:25:11;;;;;;;3.03;1.05;;;;;;;;;;5071382;28;20037;-38
2022/02/23 01:27:37;;;;;;;3.22;1.02;;;;;;;;;;5071551;28;20545;-39
2022/02/23 01:30:04;;;;;;;1.67;0.77;;;;;;;;;;5071364;28;20051;-39
2022/02/23 01:32:29;;;;;;;2.40;1.00;;;;;;;;;;5069813;28;20052;-39
2022/02/23 01:34:54;;;;;;;2.20;1.00;;;;;;;;;;5071214;28;20040;-39
2022/02/23 01:37:20;;;;;;;3.05;1.05;;;;;;;;;;5071212;28;20111;-39
2022/02/23 01:39:46;;;;;;;0.93;0.77;;;;;;;;;;5071090;28;20035;-39
2022/02/23 01:42:11;;;;;;;4.70;1.40;;;;;;;;;;5071209;28;20040;-39
2022/02/23 01:44:37;;;;;;;5.47;1.15;;;;;;;;;;5071125;28;20028;-39
2022/02/23 01:47:02;;;;;;;1.33;1.13;;;;;;;;;;5071367;28;20029;-39
2022/02/23 01:49:28;;;;;;;3.63;1.33;;;;;;;;;;5070961;28;20052;-39
2022/02/23 01:51:54;;;;;;;2.65;1.13;;;;;;;;;;5071128;28;20036;-39
2022/02/23 01:54:19;;;;;;;3.47;1.42;;;;;;;;;;5071029;28;20061;-39
2022/02/23 01:56:45;;;;;;;0.65;0.65;;;;;;;;;;5071065;28;20394;-39
2022/02/23 01:59:10;;;;;;;1.05;0.52;;;;;;;;;;5071008;28;20028;-39
2022/02/23 02:01:36;;;;;;;0.90;0.80;;;;;;;;;;5069685;28;20031;-39
2022/02/23 02:04:01;;;;;;;2.25;1.00;;;;;;;;;;5071149;28;20016;-39
2022/02/23 02:06:26;;;;;;;1.27;0.95;;;;;;;;;;5071131;28;20043;-39
2022/02/23 02:08:52;;;;;;;2.30;1.27;;;;;;;;;;5070898;28;20584;-39
2022/02/23 02:11:17;;;;;;;1.48;1.17;;;;;;;;;;5071098;28;20033;-39
2022/02/23 02:13:43;;;;;;;1.80;1.25;;;;;;;;;;5070954;28;20028;-38
2022/02/23 02:16:08;;;;;;;1.23;1.00;;;;;;;;;;5070782;28;20525;-38
2022/02/23 02:18:34;;;;;;;0.77;0.75;;;;;;;;;;5073723;28;20039;-39
2022/02/23 02:20:59;;;;;;;2.15;0.80;;;;;;;;;;5074774;28;20504;-38
2022/02/23 02:23:24;;;;;;;3.30;1.05;;;;;;;;;;5074745;28;20055;-39
2022/02/23 02:25:50;;;;;;;1.63;1.08;;;;;;;;;;5074480;28;20040;-39
2022/02/23 02:28:15;;;;;;;1.52;1.13;;;;;;;;;;5074418;28;20042;-39
2022/02/23 02:30:40;;;;;;;1.95;0.93;;;;;;;;;;5074417;28;20024;-39
2022/02/23 02:33:06;;;;;;;5.97;1.13;;;;;;;;;;5074394;28;20044;-38
2022/02/23 02:35:36;;;;;;;3.00;1.17;;;;;;;;;;5074486;28;20074;-38
2022/02/23 02:38:05;;;;;;;1.08;0.75;;;;;;;;;;5074533;28;20032;-39
2022/02/23 02:40:34;;;;;;;1.70;0.63;;;;;;;;;;5074492;28;20036;-39
2022/02/23 02:42:59;;;;;;;1.15;1.05;;;;;;;;;;5074278;28;20081;-39
2022/02/23 02:45:25;;;;;;;1.77;0.90;;;;;;;;;;5074059;28;20048;-39
2022/02/23 02:47:51;;;;;;;1.90;1.20;;;;;;;;;;5074071;28;20028;-38
2022/02/23 02:50:16;;;;;;;0.82;0.70;;;;;;;;;;5073999;28;20032;-39
2022/02/23 02:52:41;;;;;;;1.13;0.82;;;;;;;;;;5074388;28;20028;-38
2022/02/23 02:55:07;;;;;;;1.80;1.05;;;;;;;;;;5074037;28;20040;-38
2022/02/23 02:57:33;;;;;;;1.40;0.70;;;;;;;;;;5072756;28;20025;-39
2022/02/23 02:59:58;;;;;;;2.83;1.35;;;;;;;;;;5074125;28;20117;-39
2022/02/23 03:02:23;;;;;;;0.77;0.77;;;;;;;;;;5073860;28;20017;-39
2022/02/23 03:04:49;;;;;;;3.53;1.05;;;;;;;;;;5074048;28;20036;-39
2022/02/23 03:07:15;;;;;;;1.27;0.98;;;;;;;;;;5074024;28;20376;-39
2022/02/23 03:09:40;;;;;;;2.40;1.10;;;;;;;;;;5074029;28;20078;-39
2022/02/23 03:12:06;;;;;;;3.97;1.63;;;;;;;;;;5074008;28;20028;-39
2022/02/23 03:14:31;;;;;;;1.20;0.90;;;;;;;;;;5073684;28;20025;-39
2022/02/23 03:16:57;;;;;;;2.92;0.80;;;;;;;;;;5073613;28;20024;-39
2022/02/23 03:19:22;;;;;;;1.60;1.08;;;;;;;;;;5073761;28;20032;-39
2022/02/23 03:21:47;;;;;;;1.05;0.75;;;;;;;;;;5073602;28;20051;-38
2022/02/23 03:24:13;;;;;;;1.65;1.00;;;;;;;;;;5074051;28;20075;-38
2022/02/23 03:26:38;;;;;;;0.90;0.65;;;;;;;;;;5073278;28;20044;-39
2022/02/23 03:29:04;;;;;;;1.27;0.82;;;;;;;;;;5073198;28;20028;-38
2022/02/23 03:31:29;;;;;;;1.27;1.00;;;;;;;;;;5073236;28;20047;-38
2022/02/23 03:33:55;;;;;;;1.10;1.00;;;;;;;;;;5072364;28;20085;-39
2022/02/23 03:36:20;;;;;;;2.20;1.25;;;;;;;;;;5073256;28;20053;-38
2022/02/23 03:38:46;;;;;;;1.10;0.85;;;;;;;;;;5073496;28;20035;-38
2022/02/23 03:41:12;;;;;;;2.17;1.00;;;;;;;;;;5073441;28;20029;-38
2022/02/23 03:43:38;;;;;;;0.93;0.70;;;;;;;;;;5073092;28;20036;-38
2022/02/23 03:46:03;;;;;;;1.45;1.15;;;;;;;;;;5073058;28;20074;-40
2022/02/23 03:48:29;;;;;;;1.52;0.90;;;;;;;;;;5073134;28;20051;-38
2022/02/23 03:50:54;;;;;;;0.90;0.85;;;;;;;;;;5073236;28;20096;-38
2022/02/23 03:53:20;;;;;;;1.25;0.70;;;;;;;;;;5073179;28;20414;-38
2022/02/23 03:55:46;;;;;;;1.33;1.23;;;;;;;;;;5072883;28;20016;-38
2022/02/23 03:58:11;;;;;;;1.40;0.90;;;;;;;;;;5073033;28;20119;-39
2022/02/23 04:00:36;;;;;;;1.60;0.82;;;;;;;;;;5073007;28;20035;-38
2022/02/23 04:03:02;;;;;;;1.75;0.88;;;;;;;;;;5072689;28;20052;-39
2022/02/23 04:05:27;;;;;;;1.17;0.82;;;;;;;;;;5072796;28;20032;-38
2022/02/23 04:07:53;;;;;;;2.83;1.10;;;;;;;;;;5071367;28;20398;-38
2022/02/23 04:10:20;;;;;;;1.42;0.90;;;;;;;;;;5072436;28;20442;-39
2022/02/23 04:12:46;;;;;;;1.00;0.70;;;;;;;;;;5072786;28;20120;-38
2022/02/23 04:15:12;;;;;;;2.47;1.00;;;;;;;;;;5072729;28;20107;-38
2022/02/23 04:17:37;;;;;;;1.90;1.10;;;;;;;;;;5072552;28;20028;-39
2022/02/23 04:20:04;;;;;;;1.85;0.98;;;;;;;;;;5072741;28;20028;-38
2022/02/23 04:22:29;;;;;;;3.00;1.38;;;;;;;;;;5072246;28;20032;-38
2022/02/23 04:24:54;;;;;;;4.40;0.90;;;;;;;;;;5072407;28;20047;-38
2022/02/23 04:27:20;;;;;;;5.65;1.27;;;;;;;;;;5071272;28;20052;-38
2022/02/23 04:29:46;;;;;;;3.00;1.27;;;;;;;;;;5072116;28;20524;-38
2022/02/23 04:32:12;;;;;;;2.58;1.20;;;;;;;;;;5071938;28;20450;-38
2022/02/23 04:34:37;;;;;;;1.45;1.13;;;;;;;;;;5072011;28;20020;-38
2022/02/23 04:37:03;;;;;;;3.33;1.17;;;;;;;;;;5072126;28;20098;-38
2022/02/23 04:39:28;;;;;;;1.35;1.15;;;;;;;;;;5071975;28;20521;-38
2022/02/23 04:41:54;;;;;;;1.02;0.82;;;;;;;;;;5071641;28;20055;-43
2022/02/23 04:44:20;;;;;;;3.97;1.13;;;;;;;;;;5072113;28;20065;-38
2022/02/23 04:46:45;;;;;;;3.60;1.55;;;;;;;;;;5071784;28;20059;-38
2022/02/23 04:49:11;;;;;;;1.50;1.30;;;;;;;;;;5072153;28;20036;-38
2022/02/23 04:51:38;;;;;;;1.92;1.08;;;;;;;;;;5071705;28;20032;-38
2022/02/23 04:54:04;;;;;;;4.75;1.52;;;;;;;;;;5071776;28;20032;-38
2022/02/23 04:56:29;;;;;;;4.72;1.30;;;;;;;;;;5071897;28;20028;-39
2022/02/23 04:58:54;;;;;;;1.65;0.85;;;;;;;;;;5071637;28;20028;-38
2022/02/23 05:01:20;;;;;;;1.13;0.73;;;;;;;;;;5071641;28;20041;-38
2022/02/23 05:03:46;;;;;;;3.00;1.20;;;;;;;;;;5071743;28;20021;-38
2022/02/23 05:06:12;;;;;;;2.17;1.40;;;;;;;;;;5071421;28;20452;-38
2022/02/23 05:08:37;;;;;;;1.10;1.00;;;;;;;;;;5071727;28;20051;-38
2022/02/23 05:11:03;;;;;;;2.65;1.35;;;;;;;;;;5071568;28;20441;-38
2022/02/23 05:13:30;;;;;;;2.70;1.33;;;;;;;;;;5071400;28;20073;-38
2022/02/23 05:15:57;;;;;;;2.28;1.00;;;;;;;;;;5071864;28;20033;-38
2022/02/23 05:18:23;;;;;;;4.75;1.63;;;;;;;;;;5071338;28;20095;-38
2022/02/23 05:20:49;;;;;;;4.93;2.05;;;;;;;;;;5071380;28;20036;-38
2022/02/23 05:23:16;;;;;;;6.18;1.38;;;;;;;;;;5071443;28;20034;-38
2022/02/23 05:25:41;;;;;;;2.75;1.20;;;;;;;;;;5071519;28;20131;-38
2022/02/23 05:28:07;;;;;;;9.25;1.38;;;;;;;;;;5071514;28;20430;-38
2022/02/23 05:30:32;;;;;;;2.28;1.23;;;;;;;;;;5071210;28;20459;-38
2022/02/23 05:32:58;;;;;;;1.88;0.98;;;;;;;;;;5071184;28;20044;-38
2022/02/23 05:35:24;;;;;;;1.63;1.10;;;;;;;;;;5071402;28;20035;-39
2022/02/23 05:37:49;;;;;;;2.08;1.10;;;;;;;;;;5071175;28;20464;-38
2022/02/23 05:40:15;;;;;;;1.27;1.00;;;;;;;;;;5071225;28;20043;-38
2022/02/23 05:42:40;;;;;;;3.25;1.65;;;;;;;;;;5069740;28;20021;-38
2022/02/23 05:45:06;;;;;;;2.33;1.73;;;;;;;;;;5071122;28;20066;-38
2022/02/23 05:47:32;;;;;;;3.15;1.20;;;;;;;;;;5071035;28;20035;-38
2022/02/23 05:49:57;;;;;;;5.07;1.65;;;;;;;;;;5071025;28;20086;-38
2022/02/23 05:52:22;;;;;;;2.90;1.40;;;;;;;;;;5072244;28;20078;-38
2022/02/23 05:54:48;;;;;;;3.60;1.67;;;;;;;;;;5075564;28;20056;-38
2022/02/23 05:57:14;;;;;;;1.17;0.90;;;;;;;;;;5075174;28;20668;-38
2022/02/23 05:59:39;;;;;;;2.00;1.30;;;;;;;;;;5074938;28;20032;-38
2022/02/23 06:02:05;;;;;;;1.65;1.48;;;;;;;;;;5075250;28;20024;-39
2022/02/23 06:04:30;;;;;;;8.27;1.15;;;;;;;;;;5074771;28;20111;-38
2022/02/23 06:06:56;;;;;;;1.83;1.42;;;;;;;;;;5075285;28;20090;-38
2022/02/23 06:09:21;;;;;;;3.35;1.00;;;;;;;;;;5075081;28;20067;-39
2022/02/23 06:11:49;;;;;;;4.00;1.20;;;;;;;;;;5074817;28;20037;-38
2022/02/23 06:14:15;;;;;;;2.08;1.48;;;;;;;;;;5075087;28;20481;-39
2022/02/23 06:16:41;;;;;;;1.80;1.50;;;;;;;;;;5074974;28;20099;-39
2022/02/23 06:19:06;;;;;;;4.47;1.65;;;;;;;;;;5074710;28;20447;-38
2022/02/23 06:21:31;;;;;;;3.08;1.48;;;;;;;;;;5074628;28;20103;-38
2022/02/23 06:23:57;;;;;;;6.10;1.35;;;;;;;;;;5074508;28;20109;-39
2022/02/23 06:26:23;;;;;;;1.50;1.15;;;;;;;;;;5074245;28;20117;-38
2022/02/23 06:28:48;;;;;;;1.90;1.30;;;;;;;;;;5074537;28;20060;-39
2022/02/23 06:31:14;;;;;;;1.70;1.52;;;;;;;;;;5074265;28;20044;-38
2022/02/23 06:33:44;;;;;;;1.75;1.30;;;;;;;;;;5073045;28;20082;-38
2022/02/23 06:36:10;;;;;;;2.50;1.50;;;;;;;;;;5074678;28;20032;-38
2022/02/23 06:38:38;;;;;;;2.15;1.23;;;;;;;;;;5074744;28;20032;-38
2022/02/23 06:41:06;;;;;;;1.67;1.10;;;;;;;;;;5074603;28;20029;-39
2022/02/23 06:43:32;;;;;;;1.77;0.82;;;;;;;;;;5074490;28;20055;-38
2022/02/23 06:46:00;;;;;;;4.05;1.40;;;;;;;;;;5073812;28;20064;-38
2022/02/23 06:48:25;;;;;;;1.42;0.93;;;;;;;;;;5074117;28;20028;-39
2022/02/23 06:50:50;;;;;;;2.38;1.30;;;;;;;;;;5074119;28;20036;-38
2022/02/23 06:53:16;;;;;;;0.70;0.70;;;;;;;;;;5074118;28;20021;-38
2022/02/23 06:55:42;;;;;;;4.50;1.55;;;;;;;;;;5074276;28;20067;-38
2022/02/23 06:58:09;;;;;;;36.30;12.30;;;;;;;;;;5073920;28;20100;-38
2022/02/23 07:00:35;;;;;;;1.65;1.55;;;;;;;;;;5073853;28;20136;-38
2022/02/23 07:03:01;;;;;;;1.30;1.20;;;;;;;;;;5073324;28;20032;-38
2022/02/23 07:05:27;;;;;;;2.42;1.77;;;;;;;;;;5074069;28;20040;-38
2022/02/23 07:07:52;;;;;;;3.47;2.05;;;;;;;;;;5074121;28;20048;-39
2022/02/23 07:10:26;;;;;;;4.07;2.40;;;;;;;;;;5074082;28;20060;-39
2022/02/23 07:12:52;;;;;;;5.90;2.05;;;;;;;;;;5073991;28;20390;-38
2022/02/23 07:15:19;;;;;;;4.85;2.65;;;;;;;;;;5073597;28;20600;-39
2022/02/23 07:17:45;;;;;;;2.13;1.55;;;;;;;;;;5073886;28;20036;-39
2022/02/23 07:20:10;;;;;;;3.35;1.80;;;;;;;;;;5073735;28;20485;-39
2022/02/23 07:22:39;;;;;;;2.13;1.27;;;;;;;;;;5073722;28;20395;-39
2022/02/23 07:25:09;;;;;;;1.40;1.30;;;;;;;;;;5073503;28;20120;-39
2022/02/23 07:27:34;;;;;;;1.65;1.35;;;;;;;;;;5073591;28;20106;-38
2022/02/23 07:30:00;;;;;;;2.35;1.55;;;;;;;;;;5073363;28;20059;-39
2022/02/23 07:32:31;;;;;;;6.88;2.45;;;;;;;;;;5073156;28;20052;-39
2022/02/23 07:34:57;;;;;;;2.83;1.75;;;;;;;;;;5073418;28;20063;-39
2022/02/23 07:37:23;;;;;;;1.27;0.93;;;;;;;;;;5073467;28;20090;-39
2022/02/23 07:39:53;;;;;;;2.10;0.98;;;;;;;;;;5073532;28;20032;-39
2022/02/23 07:42:19;;;;;;;2.67;1.35;;;;;;;;;;5073337;28;20532;-39
2022/02/23 07:44:45;;;;;;;2.70;1.40;;;;;;;;;;5072961;28;20462;-38
2022/02/23 07:47:11;;;;;;;1.33;1.08;;;;;;;;;;5073163;28;20035;-39
2022/02/23 07:49:37;;;;;;;2.63;1.48;;;;;;;;;;5072960;28;20458;-39
2022/02/23 07:52:03;;;;;;;0.88;0.70;;;;;;;;;;5073010;28;20039;-38
2022/02/23 07:54:28;;;;;;;3.00;1.60;;;;;;;;;;5071602;28;20456;-39
2022/02/23 07:56:54;;;;;;;1.48;0.75;;;;;;;;;;5073189;28;20040;-38
2022/02/23 07:59:19;;;;;;;1.27;1.08;;;;;;;;;;5072743;28;20489;-39
2022/02/23 08:01:45;;;;;;;2.17;1.13;;;;;;;;;;5072907;28;20033;-39
2022/02/23 08:04:11;;;;;;;1.45;1.08;;;;;;;;;;5072627;28;20052;-39
2022/02/23 08:06:38;;;;;;;1.15;0.82;;;;;;;;;;5072492;28;20078;-39
2022/02/23 08:09:07;;;;;;;1.58;0.98;;;;;;;;;;5072686;28;20017;-39
2022/02/23 08:11:36;;;;;;;1.58;0.93;;;;;;;;;;5072537;28;20017;-40
2022/02/23 08:14:04;;;;;;;2.38;0.95;;;;;;;;;;5072615;28;20047;-39
2022/02/23 08:22:00;;;;;;;2.05;0.73;;;;;;;;;;5072426;28;20025;-39
2022/02/23 08:24:27;;;;;;;2.15;1.50;;;;;;;;;;5072218;28;20451;-39
2022/02/23 08:26:54;;;;;;;1.95;0.90;;;;;;;;;;5072304;28;20068;-39
2022/02/23 08:29:19;;;;;;;0.82;0.80;;;;;;;;;;5072465;28;20012;-39
2022/02/23 08:31:45;;;;;;;1.13;1.02;;;;;;;;;;5071981;28;20566;-39
2022/02/23 08:34:11;;;;;;;1.98;1.15;;;;;;;;;;5072102;28;20090;-39
2022/02/23 08:36:37;;;;;;;1.77;0.70;;;;;;;;;;5072103;28;20100;-38
2022/02/23 08:39:03;;;;;;;1.80;0.93;;;;;;;;;;5072006;28;20043;-39
2022/02/23 08:41:29;;;;;;;1.05;0.88;;;;;;;;;;5071930;28;20036;-39
2022/02/23 08:43:55;;;;;;;1.35;0.88;;;;;;;;;;5072224;28;20032;-39
2022/02/23 08:46:20;;;;;;;1.90;0.93;;;;;;;;;;5071796;28;20119;-39
2022/02/23 08:48:46;;;;;;;3.60;1.25;;;;;;;;;;5071749;28;20020;-39
2022/02/23 08:51:12;;;;;;;1.17;0.77;;;;;;;;;;5072221;28;20032;-39
2022/02/23 08:53:38;;;;;;;1.42;1.33;;;;;;;;;;5071650;28;20051;-39
2022/02/23 08:56:04;;;;;;;2.03;0.95;;;;;;;;;;5071725;28;20126;-39
2022/02/23 08:58:30;;;;;;;1.70;0.90;;;;;;;;;;5070387;28;20108;-39
2022/02/23 09:00:56;;;;;;;2.05;1.40;;;;;;;;;;5071971;28;20111;-39
2022/02/23 09:03:22;;;;;;;0.93;0.93;;;;;;;;;;5071517;28;20028;-39
2022/02/23 09:05:48;;;;;;;0.85;0.60;;;;;;;;;;5071589;28;20043;-40
2022/02/23 09:08:14;;;;;;;3.40;1.40;;;;;;;;;;5071825;28;20375;-39
2022/02/23 09:10:40;;;;;;;1.65;1.00;;;;;;;;;;5071489;28;20499;-39
2022/02/23 09:13:06;;;;;;;0.80;0.73;;;;;;;;;;5071562;28;20078;-39
2022/02/23 09:15:31;;;;;;;1.08;0.98;;;;;;;;;;5071575;28;20035;-39
2022/02/23 09:17:57;;;;;;;1.67;0.50;;;;;;;;;;5070198;28;20027;-39
2022/02/23 09:20:22;;;;;;;2.28;0.80;;;;;;;;;;5071306;28;20032;-38
2022/02/23 09:22:48;;;;;;;1.23;0.85;;;;;;;;;;5071617;28;20027;-38
2022/02/23 09:25:13;;;;;;;0.70;0.60;;;;;;;;;;5071358;28;20039;-39
2022/02/23 09:27:39;;;;;;;4.00;0.80;;;;;;;;;;5071019;28;20013;-39
2022/02/23 09:30:08;;;;;;;2.33;1.20;;;;;;;;;;5071620;28;20045;-39
2022/02/23 09:32:34;;;;;;;1.70;1.10;;;;;;;;;;5071002;28;20282;-39
2022/02/23 09:34:59;;;;;;;1.23;0.85;;;;;;;;;;5071514;28;20075;-39
2022/02/23 09:37:25;;;;;;;1.30;1.08;;;;;;;;;;5071142;28;20032;-39
2022/02/23 09:39:52;;;;;;;1.40;0.73;;;;;;;;;;5071224;28;20391;-39
2022/02/23 09:42:18;;;;;;;0.70;0.70;;;;;;;;;;5071278;28;20082;-39
2022/02/23 09:44:44;;;;;;;1.15;1.02;;;;;;;;;;5070995;28;20075;-39
2022/02/23 09:47:10;;;;;;;1.45;0.65;;;;;;;;;;5071228;28;20620;-39
2022/02/23 09:49:36;;;;;;;2.53;0.90;;;;;;;;;;5071395;28;20502;-39
2022/02/23 09:52:04;;;;;;;0.93;0.82;;;;;;;;;;5069771;28;20021;-39
2022/02/23 09:54:31;;;;;;;2.58;0.70;;;;;;;;;;5070914;28;20151;-39
2022/02/23 09:56:57;;;;;;;2.65;0.70;;;;;;;;;;5069786;28;20017;-39
2022/02/23 09:59:24;;;;;;;0.50;0.50;;;;;;;;;;5070935;28;20052;-39
2022/02/23 10:01:51;;;;;;;2.63;1.23;;;;;;;;;;5071091;28;20017;-39
2022/02/23 10:04:19;;;;;;;2.17;1.45;;;;;;;;;;5071212;28;20028;-39
2022/02/23 10:06:46;;;;;;;0.43;0.43;;;;;;;;;;5070823;28;20028;-39
2022/02/23 10:09:13;;;;;;;1.63;0.93;;;;;;;;;;5070946;28;20514;-39
2022/02/23 10:11:40;;;;;;;1.52;0.93;;;;;;;;;;5070849;28;20016;-39
2022/02/23 10:14:08;;;;;;;3.53;0.70;;;;;;;;;;5069585;28;20028;-39
2022/02/23 10:16:34;;;;;;;0.70;0.60;;;;;;;;;;5070763;28;20427;-39
2022/02/23 10:19:17;;;;;;;1.67;0.75;;;;;;;;;;5070860;28;20616;-39
2022/02/23 10:21:44;;;;;;;1.03;0.70;;;;;;;;;;5070881;28;20036;-39
2022/02/23 10:24:23;;;;;;;1.05;0.80;;;;;;;;;;5070856;28;20493;-39
2022/02/23 10:26:59;;;;;;;1.67;0.98;;;;;;;;;;5070707;28;20036;-39
2022/02/23 10:29:50;;;;;;;1.42;1.33;;;;;;;;;;5070792;28;20040;-39
2022/02/23 10:32:16;;;;;;;1.95;1.10;;;;;;;;;;5063260;28;20048;-39
2022/02/23 10:34:46;;;;;;;1.73;0.82;;;;;;;;;;5070556;28;20036;-39
2022/02/23 10:37:13;;;;;;;1.25;1.00;;;;;;;;;;5070670;28;20044;-39
2022/02/23 10:39:40;;;;;;;0.90;0.77;;;;;;;;;;5073602;28;20017;-39
2022/02/23 10:42:10;;;;;;;1.42;0.95;;;;;;;;;;5074582;28;20387;-39
2022/02/23 10:44:40;;;;;;;3.00;1.67;;;;;;;;;;5074352;28;20016;-39
2022/02/23 10:47:06;;;;;;;2.70;0.82;;;;;;;;;;5074268;28;20036;-39
2022/02/23 10:49:32;;;;;;;1.42;0.68;;;;;;;;;;5074015;28;20040;-39
2022/02/23 10:52:06;;;;;;;2.28;0.82;;;;;;;;;;5074038;28;20035;-39
2022/02/23 10:54:35;;;;;;;0.93;0.93;;;;;;;;;;5073913;28;20514;-39
2022/02/23 10:57:16;;;;;;;2.42;0.80;;;;;;;;;;5074296;28;20028;-39
2022/02/23 10:59:41;;;;;;;1.17;0.80;;;;;;;;;;5073973;28;20036;-39
2022/02/23 11:02:08;;;;;;;1.00;0.90;;;;;;;;;;5073934;28;20031;-39
2022/02/23 11:04:34;;;;;;;2.42;1.02;;;;;;;;;;5073782;28;20029;-39
2022/02/23 11:07:00;;;;;;;1.73;0.95;;;;;;;;;;5073839;28;20394;-40
2022/02/23 11:09:26;;;;;;;0.88;0.82;;;;;;;;;;5073722;28;20031;-39
2022/02/23 11:11:52;;;;;;;3.30;0.57;;;;;;;;;;5073794;28;20028;-39
2022/02/23 11:14:19;;;;;;;1.00;0.60;;;;;;;;;;5073692;28;20016;-39
2022/02/23 11:16:46;;;;;;;1.63;1.00;;;;;;;;;;5073553;28;20086;-39
2022/02/23 11:19:15;;;;;;;1.45;1.00;;;;;;;;;;5073662;28;20036;-39
2022/02/23 11:21:43;;;;;;;1.58;0.95;;;;;;;;;;5073820;28;20051;-39
2022/02/23 11:24:09;;;;;;;6.47;0.75;;;;;;;;;;5073571;28;20116;-39
2022/02/23 11:26:36;;;;;;;1.45;0.98;;;;;;;;;;5073593;28;20124;-39
2022/02/23 11:29:09;;;;;;;0.98;0.80;;;;;;;;;;5073456;28;20036;-39
2022/02/23 11:31:36;;;;;;;1.38;0.75;;;;;;;;;;5073053;28;20053;-39
2022/02/23 11:34:06;;;;;;;0.30;0.30;;;;;;;;;;5073504;28;20099;-39
2022/02/23 11:36:33;;;;;;;0.88;0.60;;;;;;;;;;5073313;28;20036;-39
2022/02/23 11:39:00;;;;;;;2.97;1.13;;;;;;;;;;5073117;28;20546;-39
2022/02/23 11:41:30;;;;;;;0.50;0.40;;;;;;;;;;5073164;28;20387;-39
2022/02/23 11:43:57;;;;;;;1.80;0.93;;;;;;;;;;5073206;28;20029;-39
2022/02/23 11:46:23;;;;;;;1.30;0.75;;;;;;;;;;5073125;28;20392;-39
2022/02/23 11:48:50;;;;;;;1.25;0.85;;;;;;;;;;5072962;28;20020;-39
2022/02/23 11:51:22;;;;;;;1.13;0.77;;;;;;;;;;5073014;28;20032;-39
2022/02/23 11:53:48;;;;;;;1.80;0.70;;;;;;;;;;5073237;28;20142;-39
2022/02/23 11:56:14;;;;;;;2.13;0.80;;;;;;;;;;5073011;28;20125;-39
2022/02/23 11:58:48;;;;;;;1.73;1.23;;;;;;;;;;5073034;28;20051;-39
2022/02/23 12:01:16;;;;;;;0.65;0.65;;;;;;;;;;5073111;28;20044;-39
2022/02/23 12:03:44;;;;;;;1.80;0.73;;;;;;;;;;5072779;28;20366;-39
2022/02/23 12:06:10;;;;;;;3.17;0.98;;;;;;;;;;5072562;28;20037;-39
2022/02/23 12:08:43;;;;;;;4.05;0.60;;;;;;;;;;5072546;28;20050;-39
2022/02/23 12:11:08;;;;;;;1.17;0.80;;;;;;;;;;5072704;28;20032;-39
2022/02/23 12:13:38;;;;;;;1.73;0.90;;;;;;;;;;5072856;28;20031;-39
2022/02/23 12:16:22;;;;;;;4.03;0.95;;;;;;;;;;5072921;28;20028;-39
2022/02/23 12:18:49;;;;;;;2.60;1.02;;;;;;;;;;5072360;28;20470;-39
2022/02/23 12:21:15;;;;;;;1.38;0.80;;;;;;;;;;5072474;28;20024;-39
2022/02/23 12:23:42;;;;;;;1.70;0.95;;;;;;;;;;5072290;28;20035;-39
2022/02/23 12:26:08;;;;;;;1.45;1.20;;;;;;;;;;5070986;28;20039;-39
2022/02/23 12:28:35;;;;;;;4.30;0.75;;;;;;;;;;5072045;28;20036;-39
2022/02/23 12:31:00;;;;;;;1.73;0.98;;;;;;;;;;5072485;28;20356;-39
2022/02/23 12:33:27;;;;;;;2.53;0.88;;;;;;;;;;5072124;28;20023;-39
2022/02/23 12:35:56;;;;;;;0.52;0.47;;;;;;;;;;5072121;28;20028;-39
2022/02/23 12:38:27;;;;;;;2.13;1.08;;;;;;;;;;5070868;28;20049;-39
2022/02/23 12:40:54;;;;;;;2.13;0.80;;;;;;;;;;5072008;28;20119;-39
2022/02/23 12:43:20;;;;;;;2.13;0.98;;;;;;;;;;5071994;28;20028;-39
2022/02/23 12:45:49;;;;;;;0.40;0.40;;;;;;;;;;5071820;28;20050;-39
2022/02/23 12:48:15;;;;;;;1.40;0.82;;;;;;;;;;5071912;28;20028;-40
2022/02/23 12:50:40;;;;;;;1.98;0.90;;;;;;;;;;5071807;28;20039;-39
2022/02/23 12:53:06;;;;;;;0.82;0.80;;;;;;;;;;5071841;28;20050;-39
2022/02/23 12:55:32;;;;;;;2.22;1.15;;;;;;;;;;5071732;28;20032;-39
2022/02/23 12:58:00;;;;;;;1.15;0.80;;;;;;;;;;5071973;28;20044;-39
2022/02/23 13:00:28;;;;;;;2.50;1.00;;;;;;;;;;5071547;28;20059;-39
2022/02/23 13:03:04;;;;;;;3.00;1.02;;;;;;;;;;5070032;28;20033;-39
2022/02/23 13:05:30;;;;;;;1.70;0.98;;;;;;;;;;5071453;28;20062;-39
2022/02/23 13:07:56;;;;;;;3.67;1.05;;;;;;;;;;5071645;28;20016;-39
2022/02/23 13:10:22;;;;;;;3.10;1.00;;;;;;;;;;5071517;28;20107;-39
2022/02/23 13:12:52;;;;;;;1.52;0.90;;;;;;;;;;5071521;28;20104;-39
2022/02/23 13:15:17;;;;;;;1.58;0.93;;;;;;;;;;5071501;28;20054;-39
2022/02/23 13:17:44;;;;;;;2.08;0.88;;;;;;;;;;5071493;28;20021;-39
2022/02/23 13:20:11;;;;;;;1.67;0.98;;;;;;;;;;5071395;28;20039;-39
2022/02/23 13:22:37;;;;;;;1.65;0.95;;;;;;;;;;5071314;28;20066;-39
2022/02/23 13:25:02;;;;;;;1.33;0.95;;;;;;;;;;5071324;28;20491;-39
2022/02/23 13:27:30;;;;;;;2.58;1.13;;;;;;;;;;5071189;28;20378;-39
2022/02/23 13:29:57;;;;;;;2.17;0.88;;;;;;;;;;5071338;28;20024;-39
2022/02/23 13:32:30;;;;;;;5.07;1.10;;;;;;;;;;5071107;28;20491;-39
2022/02/23 13:34:57;;;;;;;2.65;1.08;;;;;;;;;;5071392;28;20028;-39
2022/02/23 13:37:27;;;;;;;1.65;0.90;;;;;;;;;;5071154;28;20028;-39
2022/02/23 13:40:11;;;;;;;3.40;0.98;;;;;;;;;;5071464;28;20028;-39
2022/02/23 13:42:38;;;;;;;1.17;1.08;;;;;;;;;;5071552;28;20391;-39
2022/02/23 13:45:12;;;;;;;2.83;1.02;;;;;;;;;;5071199;28;20031;-39
2022/02/23 13:47:39;;;;;;;0.77;0.77;;;;;;;;;;5071049;28;20037;-39
2022/02/23 13:50:21;;;;;;;0.90;0.70;;;;;;;;;;5071165;28;20028;-39
2022/02/23 13:52:55;;;;;;;2.13;1.00;;;;;;;;;;5071084;28;20052;-39
2022/02/23 13:55:23;;;;;;;1.45;1.15;;;;;;;;;;5071365;28;20387;-39
2022/02/23 13:58:15;;;;;;;2.25;1.05;;;;;;;;;;5070094;28;20017;-39
2022/02/23 14:00:45;;;;;;;5.20;1.00;;;;;;;;;;5068024;28;20045;-39
2022/02/23 14:03:12;;;;;;;0.50;0.50;;;;;;;;;;5071067;28;20105;-39
2022/02/23 14:05:39;;;;;;;3.33;1.20;;;;;;;;;;5071115;28;20642;-39
2022/02/23 14:08:06;;;;;;;2.17;1.08;;;;;;;;;;5070975;28;20151;-40
2022/02/23 14:10:33;;;;;;;4.32;0.80;;;;;;;;;;5071274;28;20036;-39
2022/02/23 14:13:20;;;;;;;2.75;1.10;;;;;;;;;;5071530;28;20055;-39
2022/02/23 14:15:46;;;;;;;1.75;0.68;;;;;;;;;;5074694;28;20036;-39
2022/02/23 14:18:22;;;;;;;1.35;0.88;;;;;;;;;;5075066;28;20043;-39
2022/02/23 14:20:49;;;;;;;1.92;1.00;;;;;;;;;;5074709;28;20490;-39
2022/02/23 14:23:16;;;;;;;5.93;1.20;;;;;;;;;;5074781;28;20028;-39
2022/02/23 14:26:05;;;;;;;1.60;0.90;;;;;;;;;;5074496;28;20482;-39
2022/02/23 14:28:33;;;;;;;2.63;1.55;;;;;;;;;;5074461;28;20371;-39
2022/02/23 14:31:00;;;;;;;1.50;0.90;;;;;;;;;;5074418;28;20051;-40
2022/02/23 14:33:33;;;;;;;1.33;1.10;;;;;;;;;;5074474;28;20032;-39
2022/02/23 14:35:59;;;;;;;0.82;0.82;;;;;;;;;;5074493;28;20037;-39
2022/02/23 14:38:24;;;;;;;1.27;1.05;;;;;;;;;;5074510;28;20099;-39
2022/02/23 14:40:50;;;;;;;3.47;1.38;;;;;;;;;;5074603;28;20040;-39
2022/02/23 14:43:19;;;;;;;2.15;0.93;;;;;;;;;;5074287;28;20489;-39
2022/02/23 14:45:45;;;;;;;1.58;1.08;;;;;;;;;;5074419;28;20494;-39